Mansville, Pennsylvania
Current Conditions -  °F | °C
As of 5:56 PM on Tuesday 27 Jan 2015 (Local Time) from KCXY Reporting Station
Clear Clear  
Wind Chill: 20°   Ceiling: Unl
Heat Index: 30°   Visibility: 10mi
Dew Point: 15°   Wind: 13mph
Humidity: 54%   Direction: 290°WNW
Pressure: 29.83"   Gusts: 24mph
Location:  40.3632°N, 77.2671°W
Report Text: KCXY 272256Z 29011G21KT 10SM CLR M01/M09 A2983 RMK AO2 SLP107 T10111094
Loading
Personal Weather Stations






























Interactive Weather Map New forecast layout! Learn more

10-Day Weather Forecast

Advertisements
Track Severe Weather on mobile